createdAt,value
2022-12-31T00:05:14.767Z,98310.03
2022-12-31T00:15:16.166Z,98314.38
2022-12-31T00:25:17.724Z,98310.66
2022-12-31T00:35:19.238Z,98315.00
2022-12-31T00:45:20.796Z,98316.63
2022-12-31T00:55:22.251Z,98305.69
2022-12-31T01:05:23.847Z,98287.78
2022-12-31T01:15:25.418Z,98293.13
2022-12-31T01:25:26.939Z,98296.44
2022-12-31T01:35:28.452Z,98293.75
2022-12-31T01:45:29.818Z,98290.00
2022-12-31T01:55:57.343Z,98305.91
2022-12-31T02:06:14.460Z,98323.63
2022-12-31T02:16:23.871Z,98327.13
2022-12-31T02:26:31.210Z,98316.19
2022-12-31T02:36:34.606Z,98318.03
2022-12-31T02:46:42.591Z,98328.53
2022-12-31T02:56:59.133Z,98317.81
2022-12-31T03:07:11.040Z,98320.31
2022-12-31T03:17:12.427Z,98321.13
2022-12-31T03:27:13.945Z,98350.41
2022-12-31T03:37:15.464Z,98338.03
2022-12-31T03:47:17.024Z,98353.09
2022-12-31T03:57:18.565Z,98359.03
2022-12-31T04:07:20.098Z,98361.13
2022-12-31T04:17:21.629Z,98349.56
2022-12-31T04:27:23.008Z,98353.09
2022-12-31T04:37:24.523Z,98359.47
2022-12-31T04:47:26.074Z,98384.19
2022-12-31T04:57:27.624Z,98394.13
2022-12-31T05:07:29.015Z,98401.34
2022-12-31T05:17:30.402Z,98416.97
2022-12-31T05:27:31.931Z,98412.34
2022-12-31T05:37:33.407Z,98410.00
2022-12-31T05:47:34.807Z,98429.91
2022-12-31T05:57:36.213Z,98432.22
2022-12-31T06:07:37.579Z,98431.06
2022-12-31T06:17:38.995Z,98455.75
2022-12-31T06:27:40.387Z,98467.44
2022-12-31T06:37:41.838Z,98489.91
2022-12-31T06:47:43.244Z,98516.56
2022-12-31T06:57:44.761Z,98515.75
2022-12-31T07:08:16.607Z,98527.09
2022-12-31T07:19:13.754Z,98532.22
2022-12-31T07:29:53.779Z,98545.97
2022-12-31T07:40:17.086Z,98550.75
2022-12-31T07:50:18.998Z,98549.50
2022-12-31T08:00:20.778Z,98562.09
2022-12-31T08:10:48.485Z,98564.59
2022-12-31T08:21:04.987Z,98566.63
2022-12-31T08:31:31.493Z,98586.59
2022-12-31T08:41:42.859Z,98595.63
2022-12-31T08:51:44.966Z,98596.03
2022-12-31T09:02:21.747Z,98621.88
2022-12-31T09:12:28.744Z,98617.91
2022-12-31T09:22:30.433Z,98621.00
2022-12-31T09:33:08.920Z,98665.66
2022-12-31T09:43:14.770Z,98690.84
2022-12-31T09:53:34.402Z,98720.03
2022-12-31T10:03:57.086Z,98714.41
2022-12-31T10:14:22.921Z,98727.63
2022-12-31T10:24:45.893Z,98756.00
2022-12-31T10:34:54.490Z,98742.94
2022-12-31T10:44:55.842Z,98726.13
2022-12-31T10:55:34.491Z,98735.41
2022-12-31T11:05:54.101Z,98736.63
2022-12-31T11:16:29.483Z,98745.97
2022-12-31T11:26:50.080Z,98744.94
2022-12-31T11:37:08.833Z,98728.56
2022-12-31T11:47:28.911Z,98722.94
2022-12-31T11:57:30.133Z,98695.59
2022-12-31T12:07:31.839Z,98698.88
2022-12-31T12:17:34.209Z,98698.66
2022-12-31T12:27:36.076Z,98695.97
2022-12-31T12:37:37.489Z,98700.06
2022-12-31T12:47:41.273Z,98692.84
2022-12-31T12:57:53.324Z,98705.03
2022-12-31T13:08:19.383Z,98710.41
2022-12-31T13:18:51.958Z,98749.16
2022-12-31T13:28:54.691Z,98774.41
2022-12-31T13:38:58.048Z,98769.28
2022-12-31T13:49:04.908Z,98759.75
2022-12-31T13:59:20.119Z,98768.28
2022-12-31T14:09:32.642Z,98779.69
2022-12-31T14:20:24.304Z,98756.94
2022-12-31T14:30:27.967Z,98761.31
2022-12-31T14:41:06.718Z,98751.00
2022-12-31T14:51:08.283Z,98743.38
2022-12-31T15:01:15.693Z,98737.59
2022-12-31T15:11:20.018Z,98745.47
2022-12-31T15:21:39.589Z,98734.31
2022-12-31T15:31:44.955Z,98767.50
2022-12-31T15:42:18.631Z,98773.09
2022-12-31T15:52:20.606Z,98773.13
2022-12-31T16:02:24.282Z,98771.91
2022-12-31T16:12:32.750Z,98774.41
2022-12-31T16:22:37.864Z,98779.97
2022-12-31T16:32:39.251Z,98784.16
2022-12-31T16:42:44.241Z,98779.19
2022-12-31T16:52:47.308Z,98777.75
2022-12-31T17:02:56.073Z,98782.53
2022-12-31T17:23:28.998Z,98786.28
2022-12-31T17:33:30.728Z,98777.81
2022-12-31T17:43:36.830Z,98773.06
2022-12-31T17:53:38.375Z,98750.94
2022-12-31T18:03:39.800Z,98761.69
2022-12-31T18:13:41.200Z,98752.41
2022-12-31T18:23:46.109Z,98753.69
2022-12-31T18:33:47.981Z,98756.38
2022-12-31T18:43:49.890Z,98738.19
2022-12-31T18:53:51.418Z,98760.28
2022-12-31T19:04:03.474Z,98758.22
2022-12-31T19:14:22.924Z,98754.72
2022-12-31T19:24:26.401Z,98754.34
2022-12-31T19:34:27.927Z,98749.38
2022-12-31T19:44:29.464Z,98759.91
2022-12-31T19:54:31.007Z,98778.13
2022-12-31T20:04:32.524Z,98797.97
2022-12-31T20:14:33.974Z,98819.03
2022-12-31T20:24:35.354Z,98832.91
2022-12-31T20:34:36.761Z,98842.22
2022-12-31T20:44:38.183Z,98847.78
2022-12-31T20:54:39.750Z,98862.06
2022-12-31T21:04:41.350Z,98870.72
2022-12-31T21:14:44.879Z,98868.66
2022-12-31T21:24:46.482Z,98882.50
2022-12-31T21:35:06.437Z,98888.72
2022-12-31T21:45:10.290Z,98894.28
2022-12-31T21:55:30.429Z,98900.09
2022-12-31T22:05:31.939Z,98906.50
2022-12-31T22:15:33.374Z,98919.31
2022-12-31T22:25:35.393Z,98914.97
2022-12-31T22:35:36.778Z,98924.06
2022-12-31T22:45:38.161Z,98932.13
2022-12-31T22:55:39.552Z,98937.50
2022-12-31T23:05:41.495Z,98937.72
2022-12-31T23:16:03.589Z,98927.81
2022-12-31T23:26:06.765Z,98914.78
2022-12-31T23:36:08.433Z,98928.22
2022-12-31T23:46:10.241Z,98936.91
2022-12-31T23:56:23.294Z,98934.22
